Time;durP1;ratioP1;P1;durP2;ratioP2;P2;SDS_P1;SDS_P2;PMS_P1;PMS_P2;Temp;Humidity;BMP_temperature;BMP_pressure;BME280_temperature;BME280_humidity;BME280_pressure;Samples;Min_cycle;Max_cycle;Signal;HPM_P1;HPM_P2
2020/12/22 00:01:24;;;;;;;2.67;1.67;;;10.70;99.90;;;;;;5053389;28;20535;-89
2020/12/22 00:03:51;;;;;;;2.87;2.20;;;10.80;99.90;;;;;;5048565;28;20566;-88
2020/12/22 00:06:23;;;;;;;5.37;1.93;;;10.80;99.90;;;;;;5038156;28;20489;-90
2020/12/22 00:08:50;;;;;;;2.83;1.70;;;10.90;99.90;;;;;;5037493;28;20450;-89
2020/12/22 00:11:18;;;;;;;2.50;1.30;;;10.90;99.90;;;;;;5032461;28;20971;-88
2020/12/22 00:13:44;;;;;;;4.73;1.73;;;11.00;99.90;;;;;;5043887;28;20484;-89
2020/12/22 00:16:13;;;;;;;1.97;1.27;;;11.00;99.90;;;;;;5050636;28;21023;-88
2020/12/22 00:18:40;;;;;;;2.60;1.60;;;11.00;99.90;;;;;;5048028;28;20543;-89
2020/12/22 00:21:07;;;;;;;2.10;1.50;;;11.10;99.90;;;;;;5055096;28;20456;-90
2020/12/22 00:23:33;;;;;;;2.80;1.63;;;11.10;99.90;;;;;;5056093;28;20954;-90
2020/12/22 00:26:00;;;;;;;1.97;1.00;;;11.10;99.90;;;;;;5049817;28;20464;-89
2020/12/22 00:28:27;;;;;;;2.77;1.53;;;11.20;99.90;;;;;;5054947;28;20448;-90
2020/12/22 00:30:53;;;;;;;5.43;1.93;;;11.20;99.90;;;;;;5053736;28;20452;-90
2020/12/22 00:33:20;;;;;;;3.20;1.63;;;11.20;99.90;;;;;;5055014;28;20498;-90
2020/12/22 00:35:46;;;;;;;2.63;1.40;;;11.20;99.90;;;;;;5054726;28;20448;-91
2020/12/22 00:38:13;;;;;;;2.87;1.13;;;11.20;99.90;;;;;;5050145;28;20448;-92
2020/12/22 00:40:39;;;;;;;3.83;1.30;;;11.30;99.90;;;;;;5055157;28;20550;-91
2020/12/22 00:43:06;;;;;;;2.30;0.90;;;11.30;99.90;;;;;;5054804;28;20458;-91
2020/12/22 00:45:33;;;;;;;1.93;1.07;;;11.30;99.90;;;;;;5054173;28;20874;-90
2020/12/22 00:47:59;;;;;;;2.30;1.20;;;11.30;99.90;;;;;;5054692;28;20497;-90
2020/12/22 00:50:26;;;;;;;2.53;1.17;;;11.40;99.90;;;;;;5054062;28;20458;-90
2020/12/22 00:52:52;;;;;;;2.27;1.20;;;11.50;99.90;;;;;;5054998;28;20480;-90
2020/12/22 00:55:19;;;;;;;2.10;1.13;;;11.50;99.90;;;;;;5053816;28;20459;-90
2020/12/22 00:57:45;;;;;;;1.90;0.97;;;11.50;99.90;;;;;;5041884;28;20540;-91
2020/12/22 01:00:13;;;;;;;2.20;1.03;;;11.60;99.90;;;;;;5043143;28;20483;-91
2020/12/22 01:02:41;;;;;;;2.20;0.90;;;11.60;99.90;;;;;;5051251;28;20532;-91
2020/12/22 01:05:07;;;;;;;1.87;1.00;;;11.60;99.90;;;;;;5054114;28;20444;-91
2020/12/22 01:07:34;;;;;;;1.90;1.03;;;11.70;99.90;;;;;;5055084;28;20916;-93
2020/12/22 01:10:01;;;;;;;2.03;1.23;;;11.70;99.90;;;;;;5055070;28;20527;-92
2020/12/22 01:12:28;;;;;;;1.93;1.10;;;11.80;99.90;;;;;;5054526;28;20466;-89
2020/12/22 01:14:54;;;;;;;1.77;0.90;;;11.80;99.90;;;;;;5055806;28;20491;-93
2020/12/22 01:17:21;;;;;;;1.60;0.80;;;11.80;99.90;;;;;;5055729;28;20461;-92
2020/12/22 01:19:48;;;;;;;5.53;1.00;;;11.90;99.90;;;;;;5041183;28;20559;-91
2020/12/22 01:22:15;;;;;;;1.60;0.90;;;11.90;99.90;;;;;;5035002;28;20481;-95
2020/12/22 01:24:41;;;;;;;2.00;1.10;;;11.90;99.90;;;;;;5055862;28;20739;-93
2020/12/22 01:27:08;;;;;;;1.83;1.10;;;12.00;99.90;;;;;;5055744;28;20764;-93
2020/12/22 01:29:34;;;;;;;2.47;1.10;;;12.00;99.90;;;;;;5054949;28;20556;-93
2020/12/22 01:32:01;;;;;;;3.40;1.50;;;12.00;99.90;;;;;;5055292;28;20436;-93
2020/12/22 01:34:27;;;;;;;2.80;1.37;;;12.00;99.90;;;;;;5055802;28;20613;-91
2020/12/22 01:36:55;;;;;;;2.37;1.00;;;12.00;99.90;;;;;;5055294;28;20562;-92
2020/12/22 01:39:21;;;;;;;2.73;1.20;;;12.00;99.90;;;;;;5054134;28;20463;-92
2020/12/22 01:41:48;;;;;;;1.80;1.00;;;12.00;99.90;;;;;;5054057;28;21026;-92
2020/12/22 01:44:16;;;;;;;2.17;0.97;;;12.00;99.90;;;;;;5054662;28;20464;-89
2020/12/22 01:46:44;;;;;;;2.77;1.10;;;12.00;99.90;;;;;;5054410;28;20958;-91
2020/12/22 01:49:16;;;;;;;3.07;1.10;;;12.00;99.90;;;;;;5053732;28;20476;-90
2020/12/22 01:51:43;;;;;;;8.73;1.50;;;12.00;99.90;;;;;;5054173;28;20480;-91
2020/12/22 01:54:12;;;;;;;3.23;1.27;;;12.00;99.90;;;;;;5014393;28;21020;-90
2020/12/22 01:56:39;;;;;;;2.40;1.40;;;12.10;99.90;;;;;;5016634;28;20537;-91
2020/12/22 01:59:05;;;;;;;3.53;1.40;;;12.10;99.90;;;;;;5021066;28;20793;-91
2020/12/22 02:01:33;;;;;;;2.33;1.33;;;12.10;99.90;;;;;;5057460;28;20447;-90
2020/12/22 02:04:00;;;;;;;2.00;1.10;;;12.10;99.90;;;;;;5058484;28;20482;-90
2020/12/22 02:06:28;;;;;;;2.27;1.20;;;12.10;99.90;;;;;;5033316;28;20481;-91
2020/12/22 02:08:54;;;;;;;2.07;1.10;;;12.20;99.90;;;;;;5031909;28;20606;-92
2020/12/22 02:11:28;;;;;;;2.23;1.27;;;12.20;99.90;;;;;;5037301;28;20459;-91
2020/12/22 02:13:57;;;;;;;1.90;1.00;;;12.30;99.90;;;;;;5037675;28;20564;-92
2020/12/22 02:16:24;;;;;;;2.13;1.43;;;12.30;99.90;;;;;;5038100;28;20456;-90
2020/12/22 02:18:51;;;;;;;1.70;0.93;;;12.30;99.90;;;;;;5038247;28;20503;-91
2020/12/22 02:21:22;;;;;;;1.80;1.07;;;12.40;99.90;;;;;;5037850;28;20447;-93
2020/12/22 02:23:49;;;;;;;1.80;1.03;;;12.40;99.90;;;;;;5038332;28;20451;-90
2020/12/22 02:26:15;;;;;;;1.90;0.93;;;12.40;99.90;;;;;;5038947;28;20559;-91
2020/12/22 02:28:42;;;;;;;1.97;1.10;;;12.50;99.90;;;;;;5037554;28;20943;-92
2020/12/22 02:31:09;;;;;;;2.17;0.97;;;12.50;99.90;;;;;;5038138;28;20543;-92
2020/12/22 02:33:35;;;;;;;2.30;0.97;;;12.60;99.90;;;;;;5038310;28;20826;-92
2020/12/22 02:36:01;;;;;;;2.20;1.00;;;12.60;99.90;;;;;;5038433;28;20488;-92
2020/12/22 02:38:29;;;;;;;2.27;1.50;;;12.60;99.90;;;;;;5039079;28;20461;-91
2020/12/22 02:40:55;;;;;;;4.27;1.20;;;12.70;99.90;;;;;;5041436;28;20480;-89
2020/12/22 02:43:21;;;;;;;5.20;1.00;;;12.70;99.90;;;;;;5054857;28;20451;-91
2020/12/22 02:45:48;;;;;;;3.00;0.93;;;12.80;99.90;;;;;;5062737;28;20488;-89
2020/12/22 02:48:15;;;;;;;3.47;1.10;;;12.90;99.90;;;;;;5053966;28;20481;-92
2020/12/22 02:50:41;;;;;;;2.00;1.00;;;12.90;99.90;;;;;;5021083;28;20528;-90
2020/12/22 02:53:07;;;;;;;1.67;0.80;;;13.00;99.90;;;;;;5038231;28;20786;-89
2020/12/22 02:55:35;;;;;;;2.37;0.93;;;13.10;99.90;;;;;;5042704;28;20457;-90
2020/12/22 02:58:01;;;;;;;2.30;0.90;;;13.10;99.90;;;;;;5045480;28;20552;-90
2020/12/22 03:00:28;;;;;;;5.63;1.53;;;13.20;99.90;;;;;;5039562;28;20941;-90
2020/12/22 03:02:54;;;;;;;2.60;1.07;;;13.20;99.90;;;;;;5037039;28;20556;-90
2020/12/22 03:05:21;;;;;;;2.40;0.90;;;13.30;99.90;;;;;;5035468;28;20536;-91
2020/12/22 03:07:47;;;;;;;2.27;1.10;;;13.40;99.90;;;;;;5036133;28;20567;-88
2020/12/22 03:10:16;;;;;;;2.93;0.90;;;13.40;99.90;;;;;;5036356;28;20595;-88
2020/12/22 03:12:43;;;;;;;3.83;0.83;;;13.40;99.90;;;;;;5025886;28;20460;-92
2020/12/22 03:15:10;;;;;;;2.70;1.10;;;13.40;99.90;;;;;;5037428;28;20594;-91
2020/12/22 03:17:38;;;;;;;1.90;0.80;;;13.50;99.90;;;;;;5037475;28;20939;-90
2020/12/22 03:20:06;;;;;;;5.37;0.83;;;13.50;99.90;;;;;;5038426;28;20452;-91
2020/12/22 03:22:32;;;;;;;3.70;1.00;;;13.50;99.90;;;;;;5036715;28;20459;-91
2020/12/22 03:24:59;;;;;;;2.70;0.80;;;13.50;99.90;;;;;;5038544;28;20797;-91
2020/12/22 03:27:25;;;;;;;3.53;0.80;;;13.60;99.90;;;;;;5038407;28;20908;-89
2020/12/22 03:29:52;;;;;;;2.67;0.90;;;13.60;99.90;;;;;;5046833;28;20437;-90
2020/12/22 03:32:21;;;;;;;2.00;1.20;;;13.60;99.90;;;;;;5056085;28;20441;-88
2020/12/22 03:34:48;;;;;;;2.83;1.00;;;13.70;99.90;;;;;;5051074;28;20477;-86
2020/12/22 03:37:19;;;;;;;4.43;1.00;;;13.70;99.90;;;;;;5047698;28;20524;-89
2020/12/22 03:39:48;;;;;;;2.60;0.80;;;13.70;99.90;;;;;;5049497;28;20444;-88
2020/12/22 03:42:17;;;;;;;2.50;1.10;;;13.70;99.90;;;;;;5047137;28;20437;-87
2020/12/22 03:48:13;;;;;;;2.33;0.80;;;13.70;99.90;;;;;;5043944;28;20888;-87
2020/12/22 03:51:05;;;;;;;3.40;1.20;;;13.70;99.90;;;;;;5046072;28;20554;-88
2020/12/22 03:53:31;;;;;;;2.80;1.30;;;13.70;99.90;;;;;;5063187;28;20476;-88
2020/12/22 04:02:46;;;;;;;2.43;1.10;;;13.80;99.90;;;;;;5056023;28;20431;-88
2020/12/22 04:05:13;;;;;;;4.07;0.97;;;13.80;99.90;;;;;;5056386;28;20454;-88
2020/12/22 04:07:40;;;;;;;2.67;1.40;;;13.80;99.90;;;;;;5056215;28;20797;-88
2020/12/22 04:10:07;;;;;;;3.00;1.10;;;13.80;99.90;;;;;;5049045;28;20453;-88
2020/12/22 04:12:34;;;;;;;2.57;0.90;;;13.80;99.90;;;;;;5055996;28;20452;-88
2020/12/22 04:15:01;;;;;;;2.13;0.83;;;13.80;99.90;;;;;;5048413;28;20575;-88
2020/12/22 04:17:27;;;;;;;3.30;0.97;;;13.80;99.90;;;;;;5046235;28;20440;-88
2020/12/22 04:19:53;;;;;;;1.90;0.90;;;13.90;99.90;;;;;;5055271;28;20440;-89
2020/12/22 04:22:22;;;;;;;1.93;1.03;;;13.90;99.90;;;;;;5055624;28;20513;-87
2020/12/22 04:24:48;;;;;;;2.17;0.90;;;13.90;99.90;;;;;;5055514;28;20500;-88
2020/12/22 04:27:14;;;;;;;1.80;1.00;;;13.90;99.90;;;;;;5056045;28;20455;-87
2020/12/22 04:29:41;;;;;;;2.00;1.00;;;13.90;99.90;;;;;;5055637;28;20501;-87
2020/12/22 04:32:07;;;;;;;2.63;0.80;;;13.90;99.90;;;;;;5055581;28;20543;-87
2020/12/22 04:34:33;;;;;;;1.70;0.90;;;14.00;99.90;;;;;;5055375;28;20487;-86
2020/12/22 04:37:00;;;;;;;2.03;0.83;;;14.00;99.90;;;;;;5053473;28;20542;-86
2020/12/22 04:39:27;;;;;;;2.30;1.17;;;14.00;99.90;;;;;;5055181;28;20460;-87
2020/12/22 04:41:57;;;;;;;2.40;0.90;;;14.00;99.90;;;;;;5055175;28;20428;-87
2020/12/22 04:44:23;;;;;;;1.63;0.80;;;14.10;99.90;;;;;;5055204;28;20446;-89
2020/12/22 04:46:51;;;;;;;2.23;0.90;;;14.10;99.90;;;;;;5054331;28;20561;-84
2020/12/22 04:49:21;;;;;;;2.20;1.00;;;14.10;99.90;;;;;;5055303;28;20791;-86
2020/12/22 04:51:50;;;;;;;3.17;1.23;;;14.10;99.90;;;;;;5054885;28;20564;-87
2020/12/22 04:54:17;;;;;;;1.70;0.73;;;14.20;99.90;;;;;;5054873;28;20489;-89
2020/12/22 04:56:46;;;;;;;3.00;1.00;;;14.20;99.90;;;;;;5046332;28;21002;-86
2020/12/22 04:59:14;;;;;;;2.60;0.90;;;14.20;99.90;;;;;;5034673;28;20449;-85
2020/12/22 05:01:41;;;;;;;2.33;0.77;;;14.20;99.90;;;;;;5035957;28;20445;-85
2020/12/22 05:04:11;;;;;;;3.30;1.00;;;14.20;99.90;;;;;;5037773;28;20452;-86
2020/12/22 05:06:37;;;;;;;3.93;0.80;;;14.20;99.90;;;;;;5034837;28;20484;-86
2020/12/22 05:09:04;;;;;;;2.13;1.00;;;14.20;99.90;;;;;;5035182;28;20526;-87
2020/12/22 05:11:35;;;;;;;1.70;0.70;;;14.20;99.90;;;;;;5034141;28;20912;-85
2020/12/22 05:14:03;;;;;;;1.93;0.90;;;14.20;99.90;;;;;;5034709;28;20481;-86
2020/12/22 05:16:29;;;;;;;1.90;0.97;;;14.20;99.90;;;;;;5036922;28;20463;-88
2020/12/22 05:18:56;;;;;;;1.93;0.80;;;14.20;99.90;;;;;;5055098;28;20534;-88
2020/12/22 05:21:24;;;;;;;1.60;0.70;;;14.20;99.90;;;;;;5054171;28;20455;-90
2020/12/22 05:23:51;;;;;;;2.83;1.07;;;14.20;99.90;;;;;;5054295;28;20471;-86
2020/12/22 05:26:21;;;;;;;1.70;0.93;;;14.20;99.90;;;;;;5032954;28;20457;-87
2020/12/22 05:28:47;;;;;;;1.70;0.80;;;14.20;99.90;;;;;;5046874;28;20460;-86
2020/12/22 05:31:16;;;;;;;1.70;0.83;;;14.20;99.90;;;;;;5053391;28;20841;-86
2020/12/22 05:33:43;;;;;;;2.10;0.80;;;14.20;99.90;;;;;;5053243;28;20484;-87
2020/12/22 05:36:10;;;;;;;5.43;1.30;;;14.20;99.90;;;;;;5043062;28;20565;-88
2020/12/22 05:38:38;;;;;;;2.87;0.90;;;14.20;99.90;;;;;;5033330;28;20457;-89
2020/12/22 05:41:06;;;;;;;3.33;1.47;;;14.20;99.90;;;;;;5034499;28;20507;-90
2020/12/22 05:43:39;;;;;;;1.90;0.80;;;14.20;99.90;;;;;;5033629;28;20487;-89
2020/12/22 05:46:05;;;;;;;1.60;0.80;;;14.20;99.90;;;;;;5041806;28;20467;-89
2020/12/22 05:48:33;;;;;;;2.10;1.17;;;14.20;99.90;;;;;;5032829;28;20451;-89
2020/12/22 05:51:02;;;;;;;2.13;0.97;;;14.20;99.90;;;;;;5033131;28;20535;-90
2020/12/22 05:53:29;;;;;;;3.00;1.00;;;14.20;99.90;;;;;;5053243;28;20476;-89
2020/12/22 05:55:57;;;;;;;2.00;1.00;;;14.20;99.90;;;;;;5054198;28;20884;-87
2020/12/22 05:58:30;;;;;;;2.57;0.90;;;14.20;99.90;;;;;;5054396;28;20488;-88
2020/12/22 06:01:00;;;;;;;2.53;1.00;;;14.10;99.90;;;;;;5055323;28;20441;-87
2020/12/22 06:03:26;;;;;;;2.63;1.00;;;14.10;99.90;;;;;;5053935;28;20543;-93
2020/12/22 06:05:54;;;;;;;2.63;0.90;;;14.00;99.90;;;;;;5053651;28;20455;-87
2020/12/22 06:08:22;;;;;;;2.67;1.10;;;13.90;99.90;;;;;;5045319;28;20943;-86
2020/12/22 06:10:48;;;;;;;95.00;52.13;;;13.90;99.90;;;;;;5035000;28;20534;-87
2020/12/22 06:13:15;;;;;;;4.70;2.30;;;13.80;99.90;;;;;;5054206;28;20444;-87
2020/12/22 06:15:42;;;;;;;1.80;0.90;;;13.80;99.90;;;;;;5053817;28;20943;-88
2020/12/22 06:18:10;;;;;;;4.90;1.00;;;13.70;99.90;;;;;;5053788;28;20448;-89
2020/12/22 06:20:36;;;;;;;2.67;1.17;;;13.70;99.90;;;;;;5053592;28;20551;-88
2020/12/22 06:23:06;;;;;;;2.73;1.00;;;13.60;99.90;;;;;;5053672;28;20509;-88
2020/12/22 06:25:33;;;;;;;1.87;0.90;;;13.60;99.90;;;;;;5052971;28;20509;-92
2020/12/22 06:28:00;;;;;;;1.70;1.00;;;13.60;99.90;;;;;;5033682;28;20487;-89
2020/12/22 06:30:35;;;;;;;1.93;0.90;;;13.50;99.90;;;;;;5034549;28;20546;-88
2020/12/22 06:33:20;;;;;;;2.80;1.20;;;13.50;99.90;;;;;;5049544;28;20551;-89
2020/12/22 06:36:05;;;;;;;3.77;2.00;;;13.40;99.90;;;;;;5033527;28;20820;-89
2020/12/22 06:38:53;;;;;;;2.10;1.40;;;13.40;99.90;;;;;;5032933;28;20551;-89
2020/12/22 06:41:46;;;;;;;3.50;2.67;;;13.40;99.90;;;;;;5034057;28;20469;-88
2020/12/22 06:44:15;;;;;;;2.57;2.00;;;13.40;99.90;;;;;;5027367;28;20763;-90
2020/12/22 06:46:42;;;;;;;2.80;1.70;;;13.40;99.90;;;;;;5022625;28;20457;-89
2020/12/22 06:49:10;;;;;;;3.33;2.23;;;13.40;99.90;;;;;;5037425;28;21007;-91
2020/12/22 06:51:38;;;;;;;3.47;2.10;;;13.30;99.90;;;;;;5056375;28;20567;-91
2020/12/22 06:54:25;;;;;;;3.13;1.77;;;13.30;99.90;;;;;;5055995;28;20507;-91
2020/12/22 06:56:52;;;;;;;2.50;1.87;;;13.30;99.90;;;;;;5044036;28;20453;-91
2020/12/22 06:59:49;;;;;;;2.63;1.77;;;13.30;99.90;;;;;;5036691;28;20452;-90
2020/12/22 07:02:35;;;;;;;3.03;1.70;;;13.30;99.90;;;;;;5037307;28;20457;-91
2020/12/22 07:05:03;;;;;;;2.40;1.70;;;13.30;99.90;;;;;;5036615;28;20952;-89
2020/12/22 07:07:58;;;;;;;2.77;1.87;;;13.30;99.90;;;;;;5046505;28;20861;-92
2020/12/22 07:10:29;;;;;;;2.50;1.37;;;13.30;99.90;;;;;;5033816;28;20461;-92
2020/12/22 07:12:58;;;;;;;3.43;2.43;;;13.40;99.90;;;;;;5044069;28;20441;-92
2020/12/22 07:15:31;;;;;;;2.30;1.73;;;13.40;99.90;;;;;;5049275;28;20562;-92
2020/12/22 07:18:10;;;;;;;3.60;2.10;;;13.40;99.90;;;;;;5039375;28;20511;-92
2020/12/22 07:20:42;;;;;;;2.77;2.40;;;13.40;99.90;;;;;;5044690;28;20523;-93
2020/12/22 07:23:09;;;;;;;2.80;2.20;;;13.40;99.90;;;;;;5058830;28;20441;-92
2020/12/22 07:25:37;;;;;;;3.00;2.67;;;13.40;99.90;;;;;;5030230;28;20478;-92
2020/12/22 07:28:05;;;;;;;2.60;2.30;;;13.50;99.90;;;;;;5042744;28;20460;-91
2020/12/22 07:30:32;;;;;;;4.43;2.40;;;13.50;99.90;;;;;;5044876;28;20941;-93
2020/12/22 07:33:01;;;;;;;3.70;2.03;;;13.50;99.90;;;;;;5025575;28;20465;-89
2020/12/22 07:35:27;;;;;;;4.60;1.90;;;13.50;99.90;;;;;;5025196;28;20512;-90
2020/12/22 07:38:01;;;;;;;4.20;2.00;;;13.60;99.90;;;;;;5048274;28;20456;-90
2020/12/22 07:40:28;;;;;;;2.33;1.90;;;13.60;99.90;;;;;;5040148;28;20480;-90
2020/12/22 07:43:04;;;;;;;2.50;2.07;;;13.60;99.90;;;;;;5036697;28;20540;-90
2020/12/22 07:45:30;;;;;;;3.50;1.97;;;13.60;99.90;;;;;;5036370;28;20444;-92
2020/12/22 07:47:57;;;;;;;2.10;1.80;;;13.70;99.90;;;;;;5036659;28;20453;-90
2020/12/22 07:50:24;;;;;;;3.10;1.80;;;13.70;99.90;;;;;;5036552;28;20520;-90
2020/12/22 07:52:56;;;;;;;2.60;1.70;;;13.70;99.90;;;;;;5051621;28;20480;-89
2020/12/22 07:55:23;;;;;;;3.90;2.00;;;13.70;99.90;;;;;;5055610;28;20471;-91
2020/12/22 07:57:50;;;;;;;2.43;1.50;;;13.70;99.90;;;;;;5055208;28;21425;-91
2020/12/22 08:00:17;;;;;;;2.90;1.60;;;13.80;99.90;;;;;;5053715;28;20471;-90
2020/12/22 08:02:43;;;;;;;2.13;1.40;;;13.80;99.90;;;;;;5054508;28;20452;-90
2020/12/22 08:05:11;;;;;;;6.10;1.67;;;13.80;99.90;;;;;;5056978;28;20471;-91
2020/12/22 08:08:12;;;;;;;10.93;2.93;;;13.90;99.90;;;;;;5054254;28;20452;-92
2020/12/22 08:10:53;;;;;;;2.20;1.20;;;13.90;99.90;;;;;;5053420;28;20459;-91
2020/12/22 08:13:40;;;;;;;2.87;1.50;;;13.80;99.90;;;;;;5057905;28;20455;-91
2020/12/22 08:16:20;;;;;;;2.60;1.70;;;13.80;99.90;;;;;;5056714;28;20444;-90
2020/12/22 08:18:48;;;;;;;4.10;1.30;;;13.80;99.90;;;;;;5057008;28;20456;-89
2020/12/22 08:21:23;;;;;;;3.80;1.90;;;13.80;99.90;;;;;;5059921;28;20519;-89
2020/12/22 08:23:53;;;;;;;2.10;1.23;;;13.90;99.90;;;;;;5062143;28;20482;-91
2020/12/22 08:26:20;;;;;;;2.77;1.30;;;13.90;99.90;;;;;;5059854;28;20518;-90
2020/12/22 08:28:54;;;;;;;2.83;1.50;;;13.90;99.90;;;;;;5056130;28;20456;-90
2020/12/22 08:31:27;;;;;;;2.40;1.50;;;13.90;99.90;;;;;;5053609;28;20453;-90
2020/12/22 08:33:56;;;;;;;3.60;1.40;;;14.00;99.90;;;;;;5044125;28;20483;-91
2020/12/22 08:36:27;;;;;;;1.83;1.20;;;13.90;99.90;;;;;;5053969;28;20521;-90
2020/12/22 08:39:11;;;;;;;4.17;1.30;;;14.00;99.90;;;;;;5054511;28;20571;-91
2020/12/22 08:41:39;;;;;;;2.00;1.20;;;14.00;99.90;;;;;;5055228;28;20480;-88
2020/12/22 08:44:06;;;;;;;2.83;1.07;;;14.00;99.90;;;;;;5055443;28;20491;-88
2020/12/22 08:46:37;;;;;;;2.00;1.10;;;13.90;99.90;;;;;;5054891;28;20454;-93
2020/12/22 08:49:07;;;;;;;3.10;1.50;;;14.00;99.90;;;;;;5055795;28;20850;-86
2020/12/22 08:51:34;;;;;;;1.87;1.17;;;14.00;99.90;;;;;;5056192;28;20519;-89
2020/12/22 08:54:01;;;;;;;2.23;1.10;;;14.00;99.90;;;;;;5054307;28;20468;-87
2020/12/22 08:56:28;;;;;;;3.00;1.47;;;13.80;99.90;;;;;;5053927;28;20550;-87
2020/12/22 08:58:56;;;;;;;4.90;1.53;;;13.70;99.90;;;;;;5053963;28;20452;-87
2020/12/22 09:01:24;;;;;;;2.80;1.30;;;13.60;99.90;;;;;;5054141;28;20496;-89
2020/12/22 09:03:54;;;;;;;3.20;1.40;;;13.60;99.90;;;;;;5052721;28;20458;-88
2020/12/22 09:06:32;;;;;;;2.97;1.50;;;13.60;99.90;;;;;;5049236;28;20448;-86
2020/12/22 09:09:03;;;;;;;3.87;1.30;;;13.50;99.90;;;;;;5054412;28;20475;-88
2020/12/22 09:11:30;;;;;;;3.20;1.53;;;13.50;99.90;;;;;;5041166;28;20519;-87
2020/12/22 09:14:08;;;;;;;2.50;1.27;;;13.60;99.90;;;;;;5053634;28;20477;-89
2020/12/22 09:16:52;;;;;;;3.30;1.30;;;13.60;99.90;;;;;;5056273;28;20986;-89
2020/12/22 09:19:21;;;;;;;2.87;1.27;;;13.60;99.90;;;;;;5059089;28;20739;-89
2020/12/22 09:21:56;;;;;;;3.10;1.40;;;13.60;99.90;;;;;;5060507;28;20819;-88
2020/12/22 09:24:23;;;;;;;3.27;1.23;;;13.60;99.90;;;;;;5073596;28;20451;-90
2020/12/22 09:26:53;;;;;;;2.33;1.50;;;13.70;99.90;;;;;;5065409;28;20955;-89
2020/12/22 09:29:23;;;;;;;2.07;1.17;;;13.70;99.90;;;;;;5068055;28;20462;-89
2020/12/22 09:31:50;;;;;;;4.90;1.70;;;13.70;99.90;;;;;;5064069;28;20990;-89
2020/12/22 09:34:17;;;;;;;2.10;1.20;;;13.80;99.90;;;;;;5052373;28;20479;-89
2020/12/22 09:36:49;;;;;;;2.97;1.00;;;13.80;99.90;;;;;;5056821;28;20451;-90
2020/12/22 09:39:16;;;;;;;3.30;1.27;;;13.80;99.90;;;;;;5058735;28;20822;-89
2020/12/22 09:41:43;;;;;;;3.70;1.37;;;13.90;99.90;;;;;;5067800;28;20440;-90
2020/12/22 09:44:09;;;;;;;3.20;1.30;;;13.90;99.90;;;;;;5066557;28;20514;-89
2020/12/22 09:46:36;;;;;;;4.70;2.37;;;13.90;99.90;;;;;;5056684;28;20467;-91
2020/12/22 09:49:03;;;;;;;3.77;1.20;;;14.00;99.90;;;;;;5056974;28;20452;-90
2020/12/22 09:51:30;;;;;;;3.33;1.10;;;13.90;99.90;;;;;;5056755;28;20985;-90
2020/12/22 09:53:57;;;;;;;3.43;1.40;;;14.00;99.90;;;;;;5056183;28;20567;-89
2020/12/22 09:56:24;;;;;;;4.30;2.07;;;14.00;99.90;;;;;;5056083;28;20482;-89
2020/12/22 09:58:50;;;;;;;3.37;1.33;;;14.00;99.90;;;;;;5056171;28;20452;-89
2020/12/22 10:01:22;;;;;;;5.27;1.77;;;14.00;99.90;;;;;;5057297;28;20444;-91
2020/12/22 10:03:49;;;;;;;2.87;1.80;;;13.90;99.90;;;;;;5055191;28;20444;-91
2020/12/22 10:06:17;;;;;;;3.20;1.57;;;14.00;99.90;;;;;;5056820;28;20448;-90
2020/12/22 10:08:43;;;;;;;2.87;1.50;;;14.00;99.90;;;;;;5056253;28;20468;-91
2020/12/22 10:11:11;;;;;;;2.77;1.47;;;14.00;99.90;;;;;;5056903;28;20456;-91
2020/12/22 10:13:41;;;;;;;2.43;1.30;;;14.00;99.90;;;;;;5060658;28;20455;-92
2020/12/22 10:16:09;;;;;;;6.30;2.00;;;14.10;99.90;;;;;;5071777;28;20455;-92
2020/12/22 10:18:36;;;;;;;2.10;1.20;;;14.20;99.90;;;;;;5063741;28;20905;-92
2020/12/22 10:21:07;;;;;;;3.93;1.30;;;14.20;99.90;;;;;;5061225;28;20451;-91
2020/12/22 10:23:37;;;;;;;2.77;1.10;;;14.30;99.90;;;;;;5061080;28;20456;-91
2020/12/22 10:26:04;;;;;;;3.10;2.00;;;14.30;99.90;;;;;;5060775;28;20496;-91
2020/12/22 10:28:33;;;;;;;2.00;1.00;;;14.30;99.90;;;;;;5060446;28;20452;-91
2020/12/22 10:31:00;;;;;;;4.10;1.47;;;14.30;99.90;;;;;;5059500;28;20531;-91
2020/12/22 10:33:27;;;;;;;2.63;1.20;;;14.40;99.90;;;;;;5065238;28;20916;-93
2020/12/22 10:35:54;;;;;;;3.60;1.20;;;14.30;99.90;;;;;;5057688;28;20484;-91
2020/12/22 10:38:21;;;;;;;4.30;1.10;;;14.40;99.90;;;;;;5061372;28;20739;-91
2020/12/22 10:40:48;;;;;;;5.63;1.10;;;14.40;99.90;;;;;;5059882;28;20794;-91
2020/12/22 10:43:15;;;;;;;2.37;0.97;;;14.40;99.90;;;;;;5060195;28;20448;-91
2020/12/22 10:45:42;;;;;;;2.27;1.10;;;14.30;99.90;;;;;;5059695;28;20481;-91
2020/12/22 10:48:09;;;;;;;5.10;1.60;;;14.30;99.90;;;;;;5059742;28;20767;-91
2020/12/22 10:50:39;;;;;;;4.40;1.43;;;14.20;99.90;;;;;;5064983;28;20447;-91
2020/12/22 10:53:07;;;;;;;3.90;1.10;;;14.10;99.90;;;;;;5043457;28;20472;-92
2020/12/22 10:55:33;;;;;;;2.90;1.00;;;14.00;99.90;;;;;;5028605;28;20476;-91
2020/12/22 10:58:00;;;;;;;3.60;1.00;;;13.90;99.90;;;;;;5026348;28;20465;-92
2020/12/22 11:00:27;;;;;;;2.87;0.87;;;14.00;99.90;;;;;;5031757;28;20522;-88
2020/12/22 11:02:56;;;;;;;2.67;1.00;;;14.10;99.90;;;;;;5038119;28;20547;-93
2020/12/22 11:08:07;;;;;;;4.90;1.13;;;13.90;99.90;;;;;;5022343;28;20440;-93
2020/12/22 11:10:33;;;;;;;3.83;1.07;;;13.70;99.90;;;;;;5040403;28;20452;-92
2020/12/22 11:13:00;;;;;;;3.20;1.30;;;13.60;99.90;;;;;;5058346;28;20471;-93
2020/12/22 11:15:26;;;;;;;3.23;1.33;;;13.60;99.90;;;;;;5057039;28;20506;-91
2020/12/22 11:17:53;;;;;;;2.87;1.40;;;13.50;99.90;;;;;;5055289;28;20444;-90
2020/12/22 11:20:20;;;;;;;5.10;1.37;;;13.60;99.90;;;;;;5057287;28;20440;-90
2020/12/22 11:22:47;;;;;;;6.30;1.60;;;13.70;99.90;;;;;;5056332;28;20959;-90
2020/12/22 11:25:13;;;;;;;4.70;1.67;;;14.00;99.90;;;;;;5056773;28;20444;-90
2020/12/22 11:27:40;;;;;;;3.57;1.67;;;14.40;99.90;;;;;;5023104;28;20541;-90
2020/12/22 11:30:06;;;;;;;2.57;1.40;;;14.50;99.90;;;;;;5016398;28;20564;-91
2020/12/22 11:32:33;;;;;;;2.90;1.57;;;14.70;99.90;;;;;;5028396;28;20548;-91
2020/12/22 11:35:00;;;;;;;3.07;1.50;;;14.70;99.90;;;;;;5042655;28;20574;-91
2020/12/22 11:37:27;;;;;;;2.00;1.10;;;14.80;99.90;;;;;;5056628;28;20531;-89
2020/12/22 11:39:56;;;;;;;2.67;1.20;;;14.70;99.90;;;;;;5043693;28;20441;-89
2020/12/22 11:42:22;;;;;;;3.40;1.20;;;14.60;99.90;;;;;;5042412;28;20449;-92
2020/12/22 11:44:49;;;;;;;3.27;1.03;;;14.50;99.90;;;;;;5034604;28;20557;-93
2020/12/22 11:47:16;;;;;;;5.97;1.10;;;14.50;99.90;;;;;;5035819;28;20567;-94
2020/12/22 11:49:42;;;;;;;2.73;1.00;;;14.60;99.90;;;;;;5036646;28;20461;-93
2020/12/22 11:52:10;;;;;;;1.87;1.03;;;14.60;99.90;;;;;;5043496;28;21060;-94
2020/12/22 11:54:37;;;;;;;2.13;1.40;;;14.60;99.90;;;;;;5034605;28;20485;-92
2020/12/22 11:57:04;;;;;;;4.47;1.30;;;14.60;99.90;;;;;;5036304;28;20504;-92
2020/12/22 11:59:30;;;;;;;2.90;1.10;;;14.60;99.90;;;;;;5031491;28;20536;-91
2020/12/22 12:01:56;;;;;;;2.53;1.13;;;14.70;99.90;;;;;;5056416;28;20471;-91
2020/12/22 12:04:23;;;;;;;2.80;1.43;;;14.60;99.90;;;;;;5040811;28;20500;-91
2020/12/22 12:06:49;;;;;;;3.20;1.30;;;14.60;99.90;;;;;;5034326;28;20981;-91
2020/12/22 12:09:19;;;;;;;3.97;1.60;;;14.60;99.90;;;;;;5028893;28;20461;-92
2020/12/22 12:11:48;;;;;;;2.90;1.20;;;14.60;99.90;;;;;;5021760;28;20492;-93
2020/12/22 12:14:14;;;;;;;2.67;1.70;;;14.70;99.90;;;;;;5035888;28;20530;-90
2020/12/22 12:16:41;;;;;;;3.60;1.60;;;14.70;99.90;;;;;;5032356;28;20821;-93
2020/12/22 12:19:07;;;;;;;3.20;1.30;;;14.60;99.90;;;;;;5041123;28;20471;-91
2020/12/22 12:21:34;;;;;;;2.27;1.00;;;14.50;99.90;;;;;;5033250;28;20955;-93
2020/12/22 12:24:01;;;;;;;4.70;2.23;;;14.70;99.90;;;;;;5035270;28;20467;-92
2020/12/22 12:26:29;;;;;;;2.47;1.30;;;14.70;99.90;;;;;;5035412;28;20950;-93
2020/12/22 12:28:55;;;;;;;4.10;1.57;;;14.80;99.90;;;;;;5028907;28;20536;-92
2020/12/22 12:31:23;;;;;;;4.87;3.50;;;14.70;99.90;;;;;;5046609;28;20453;-92
2020/12/22 12:33:50;;;;;;;11.20;9.50;;;14.70;99.90;;;;;;5034786;28;20817;-91
2020/12/22 12:36:17;;;;;;;6.23;2.97;;;14.80;99.90;;;;;;5037983;28;20445;-90
2020/12/22 12:38:43;;;;;;;5.00;3.47;;;14.80;99.90;;;;;;5029472;28;20852;-91
2020/12/22 12:41:11;;;;;;;2.20;1.20;;;14.80;99.90;;;;;;5022239;28;20912;-91
2020/12/22 12:43:38;;;;;;;3.10;2.03;;;14.80;99.90;;;;;;5029647;28;20487;-90
2020/12/22 12:46:05;;;;;;;2.53;1.10;;;14.70;99.90;;;;;;5033523;28;20461;-92
2020/12/22 12:48:31;;;;;;;1.70;0.90;;;14.50;99.90;;;;;;5032363;28;20995;-91
2020/12/22 12:50:58;;;;;;;4.37;1.30;;;14.30;99.90;;;;;;5034140;28;20862;-91
2020/12/22 12:53:24;;;;;;;1.90;0.90;;;14.20;99.90;;;;;;5053554;28;20508;-91
2020/12/22 12:55:51;;;;;;;2.03;0.80;;;14.00;99.90;;;;;;5056294;28;20581;-91
2020/12/22 12:58:17;;;;;;;3.67;1.13;;;14.00;99.90;;;;;;5054404;28;20467;-92
2020/12/22 13:00:44;;;;;;;4.13;1.20;;;13.90;99.90;;;;;;5053607;28;20964;-92
2020/12/22 13:03:11;;;;;;;3.10;0.90;;;13.90;99.90;;;;;;5055755;28;20816;-91
2020/12/22 13:05:37;;;;;;;3.80;1.00;;;13.90;99.90;;;;;;5054038;28;20566;-91